Impacts METAR Board
IDs:

KATL - Atlanta/Hartsfield-J, GA, US

Updated at: 0100 UTC 24 Jun 2018
Potential Impact None Slight Moderate High
Time 23/13Z 23/14Z 23/15Z 23/16Z 23/17Z 23/18Z 23/19Z 23/20Z 23/21Z 23/22Z 23/23Z 24/00Z 24/01Z
Temp76 79 82 82 81 82 82 82 82 81 80 80 78
Dewpt71 71 72 72 73 74 71 68 67 67 67 68 69
Altim29.96 29.97 29.97 29.97 29.98 29.98 29.99 29.97 29.97 29.96 29.95 29.94 29.95
VIS8 10 10 10 10 10 10 10 10 10 10 10 10
CIG10 60 90 32 17 170 150 100 150 200 200 250 --
CoverBKNBKNBKNBKNOVCBKNBKNBKNBKNBKNBKNBKNSCT
FltCatMVFRVFRVFRVFRMVFRVFRVFRVFRVFRVFRVFRVFRVFR
WX----VCTS--------------------
WDir240270260250260250270260230240220200220
WSpd8 7 10 9 9 7 8 8 8 8 7 5 3
WGst-- -- 17 -- 17 -- -- -- -- -- -- -- --
Raw hourly METARs
KATL 231252Z 24008KT 8SM BKN010 BKN065 24/22 A2996 RMK AO2 SLP135 CIG 008V014 BKN010 V SCT T02440217
KATL 231352Z 27007KT 10SM FEW016 BKN060 BKN090 26/22 A2997 RMK AO2 SLP139 T02610217
KATL 231452Z 26010G17KT 10SM VCTS FEW021 SCT040CB BKN090 BKN250 28/22 A2997 RMK AO2 LTG DSNT S AND SW SLP140 OCNL LTGCG VC S-SW TS VC S-SW MOV E T02780222 51012
KATL 231552Z 25009KT 10SM FEW021 BKN032 BKN060 BKN250 28/22 A2997 RMK AO2 LTG DSNT SE RAB27E36 SLP139 CB DSNT SE P0000 T02780222
KATL 231652Z 26009G17KT 10SM BKN017 OVC025 27/23 A2998 RMK AO2 SLP142 CB DSNT SE SHRA VC W T02720228
KATL 231752Z 25007KT 10SM FEW016 BKN170 28/23 A2998 RMK AO2 RAB1659E24 SLP141 P0018 60018 T02780233 10283 20239 50001
KATL 231852Z 27008KT 10SM FEW028 BKN150 28/22 A2999 RMK AO2 SLP144 T02780217
KATL 231952Z 26008KT 10SM SCT030 BKN100 BKN200 28/20 A2997 RMK AO2 SLP137 T02780200
KATL 232052Z 23008KT 10SM FEW034 SCT100 BKN150 BKN200 28/19 A2997 RMK AO2 SLP137 CB DSNT NE ACC DSNT NW-N T02780194 58003
KATL 232152Z 24008KT 10SM FEW034 FEW110 SCT150 BKN200 27/19 A2996 RMK AO2 SLP136 CB DSNT W-NW ACC DSNT N-NE T02720194
KATL 232252Z 22007KT 10SM FEW034 FEW075 SCT120 BKN200 27/19 A2995 RMK AO2 SLP133 SHRA DSNT N-NE T02670194
KATL 232352Z 20005KT 10SM FEW110 SCT200 BKN250 27/20 A2994 RMK AO2 SLP127 ACC DSNT NE T02670200 10283 20267 58010
KATL 240052Z 22003KT 10SM FEW110 FEW150 SCT200 SCT250 26/21 A2995 RMK AO2 SLP131 T02560206



Page loaded:  01:16 UTC  |   06:16 PM Pacific  |   07:16 PM Mountain  |   08:16 PM Central  |   09:16 PM Eastern

 

ADVISORIES

FORECASTS

FORECASTS

OBSERVATIONS

USER TOOLS

ABOUT US